Time;durP1;ratioP1;P1;durP2;ratioP2;P2;SDS_P1;SDS_P2;PMS_P1;PMS_P2;Temp;Humidity;BMP_temperature;BMP_pressure;BME280_temperature;BME280_humidity;BME280_pressure;Samples;Min_cycle;Max_cycle;Signal;HPM_P1;HPM_P2
2022/11/27 00:00:26;;;;;;;13.13;5.57;;;6.70;99.90;5.90;101926.00;;;;4987935;27;107198;-66
2022/11/27 00:02:52;;;;;;;8.50;5.57;;;6.80;99.90;5.90;101930.00;;;;4991048;27;89296;-66
2022/11/27 00:05:18;;;;;;;7.23;5.63;;;6.90;99.90;5.90;101929.00;;;;4987538;27;118938;-66
2022/11/27 00:07:44;;;;;;;4.60;3.50;;;6.10;99.90;5.90;101930.00;;;;4990586;27;111938;-65
2022/11/27 00:10:10;;;;;;;6.30;3.97;;;6.10;99.90;5.90;101940.00;;;;4986552;27;108809;-65
2022/11/27 00:12:35;;;;;;;9.90;6.00;;;6.10;99.90;5.90;101919.00;;;;4992664;27;88002;-65
2022/11/27 00:15:02;;;;;;;7.90;4.20;;;6.40;99.90;5.90;101923.00;;;;4993548;27;88048;-65
2022/11/27 00:17:28;;;;;;;6.30;4.03;;;6.10;99.90;5.90;101932.00;;;;4991735;27;89538;-66
2022/11/27 00:19:54;;;;;;;7.73;4.20;;;6.10;99.90;5.90;101922.00;;;;4988333;27;108908;-66
2022/11/27 00:22:20;;;;;;;6.00;3.87;;;6.00;99.90;5.90;101922.00;;;;4975024;28;115170;-65
2022/11/27 00:24:45;;;;;;;4.50;4.10;;;6.80;99.90;5.90;101911.00;;;;4993853;27;116930;-66
2022/11/27 00:27:11;;;;;;;5.13;4.33;;;6.00;99.90;5.80;101910.00;;;;4990268;28;108349;-65
2022/11/27 00:29:37;;;;;;;6.30;3.17;;;6.00;99.90;5.80;101902.00;;;;4989550;27;108713;-65
2022/11/27 00:32:05;;;;;;;7.67;4.73;;;6.00;99.90;5.80;101915.00;;;;4987418;27;118709;-66
2022/11/27 00:34:31;;;;;;;3.97;3.63;;;6.00;99.90;5.70;101908.00;;;;4990379;28;88856;-65
2022/11/27 00:36:56;;;;;;;4.93;4.40;;;5.90;99.90;5.70;101914.00;;;;4989414;27;110378;-66
2022/11/27 00:39:22;;;;;;;8.93;5.23;;;5.90;99.90;5.70;101910.00;;;;4989912;27;108123;-65
2022/11/27 00:41:48;;;;;;;9.80;4.37;;;6.50;99.90;5.70;101915.00;;;;4986430;28;118144;-65
2022/11/27 00:44:14;;;;;;;6.90;4.30;;;5.90;99.90;5.70;101917.00;;;;4986061;28;88742;-65
2022/11/27 00:46:40;;;;;;;5.60;3.50;;;6.50;99.90;5.70;101921.00;;;;4990720;28;111403;-65
2022/11/27 00:49:07;;;;;;;10.37;4.20;;;5.90;99.90;5.70;101916.00;;;;4992043;28;87765;-66
2022/11/27 00:51:33;;;;;;;8.17;4.33;;;5.70;99.90;5.70;101918.00;;;;4990182;28;88815;-65
2022/11/27 00:53:59;;;;;;;6.27;4.43;;;5.70;99.90;5.70;101915.00;;;;4990392;27;112407;-65
2022/11/27 00:56:29;;;;;;;8.17;4.90;;;5.80;99.90;5.60;101918.00;;;;4990889;28;102118;-65
2022/11/27 00:58:55;;;;;;;5.20;4.47;;;5.80;99.90;5.60;101913.00;;;;4991619;28;99770;-65
2022/11/27 01:01:27;;;;;;;7.17;3.60;;;5.70;99.90;5.60;101908.00;;;;4995226;28;98463;-65
2022/11/27 01:03:56;;;;;;;6.90;4.33;;;5.90;99.90;5.60;101915.00;;;;4991591;28;88511;-65
2022/11/27 01:06:22;;;;;;;12.83;4.10;;;5.80;99.90;5.60;101922.00;;;;4994859;28;87932;-65
2022/11/27 01:08:48;;;;;;;4.67;3.87;;;5.70;99.90;5.60;101920.00;;;;4991460;27;87183;-65
2022/11/27 01:11:18;;;;;;;7.67;4.60;;;6.50;99.90;5.60;101914.00;;;;4986717;28;93991;-65
2022/11/27 01:13:44;;;;;;;4.23;3.83;;;5.70;99.90;5.60;101910.00;;;;4987266;28;88080;-65
2022/11/27 01:16:14;;;;;;;9.13;4.17;;;5.70;99.90;5.60;101906.00;;;;4995434;28;88613;-65
2022/11/27 01:18:42;;;;;;;5.00;4.20;;;5.80;99.90;5.60;101907.00;;;;4991643;28;87855;-66
2022/11/27 01:21:10;;;;;;;8.73;3.67;;;5.80;99.90;5.60;101902.00;;;;4997536;27;88579;-66
2022/11/27 01:23:36;;;;;;;6.97;4.50;;;5.70;99.90;5.60;101893.00;;;;4992119;28;87976;-66
2022/11/27 01:26:05;;;;;;;4.00;3.10;;;5.70;99.90;5.60;101899.00;;;;4994375;27;111245;-65
2022/11/27 01:28:31;;;;;;;4.93;3.80;;;5.70;99.90;5.60;101886.00;;;;4995870;28;88035;-65
2022/11/27 01:30:57;;;;;;;4.90;3.97;;;5.70;99.90;5.60;101889.00;;;;4996920;28;87794;-65
2022/11/27 01:33:23;;;;;;;3.77;3.37;;;5.70;99.90;5.50;101877.00;;;;4994668;28;88739;-66
2022/11/27 01:36:10;;;;;;;6.13;4.23;;;6.00;99.90;5.50;101878.00;;;;4994453;28;87831;-65
2022/11/27 01:38:37;;;;;;;9.07;3.70;;;5.70;99.90;5.50;101881.00;;;;4982217;28;88386;-65
2022/11/27 01:41:13;;;;;;;3.87;3.27;;;5.70;99.90;5.50;101875.00;;;;4988452;27;105633;-65
2022/11/27 01:43:49;;;;;;;4.10;3.30;;;5.80;99.90;5.40;101865.00;;;;4991346;27;89711;-65
2022/11/27 01:46:28;;;;;;;7.10;4.37;;;5.70;99.90;5.40;101863.00;;;;4990843;28;87750;-65
2022/11/27 01:49:32;;;;;;;4.90;4.17;;;5.70;99.90;5.30;101858.00;;;;4979787;28;87905;-65
2022/11/27 01:52:03;;;;;;;5.07;3.10;;;5.60;99.90;5.30;101870.00;;;;4988098;28;106676;-65
2022/11/27 01:54:47;;;;;;;5.90;3.03;;;5.50;99.90;5.30;101863.00;;;;4979981;28;96466;-66
2022/11/27 01:57:21;;;;;;;9.87;3.97;;;5.50;99.90;5.20;101856.00;;;;4991820;28;87609;-66
2022/11/27 01:59:50;;;;;;;5.57;3.57;;;5.50;99.90;5.20;101849.00;;;;4994133;28;87259;-66
2022/11/27 02:02:16;;;;;;;6.23;2.80;;;5.40;99.90;5.10;101853.00;;;;4979764;28;88387;-66
2022/11/27 02:04:41;;;;;;;6.50;3.80;;;5.40;99.90;5.10;101841.00;;;;4992240;28;116603;-65
2022/11/27 02:07:07;;;;;;;4.50;3.23;;;6.10;99.90;5.00;101821.00;;;;4990309;28;111646;-65
2022/11/27 02:09:33;;;;;;;7.57;3.60;;;5.30;99.90;4.90;101821.00;;;;4988340;28;108400;-66
2022/11/27 02:12:23;;;;;;;4.73;3.50;;;5.80;99.90;4.80;101830.00;;;;4987990;28;117577;-66
2022/11/27 02:15:20;;;;;;;3.97;2.10;;;5.10;99.90;4.60;101830.00;;;;4994694;28;88143;-66
2022/11/27 02:18:30;;;;;;;11.03;4.13;;;5.00;99.90;4.50;101840.00;;;;4991612;27;87825;-66
2022/11/27 02:21:33;;;;;;;9.97;5.47;;;4.80;99.90;4.30;101825.00;;;;4979036;28;97782;-66
2022/11/27 02:24:46;;;;;;;6.63;3.07;;;4.70;99.90;4.20;101820.00;;;;4985302;28;89085;-66
2022/11/27 02:27:49;;;;;;;6.63;2.97;;;4.60;99.90;4.00;101823.00;;;;4977288;28;88077;-66
2022/11/27 02:30:16;;;;;;;3.70;2.70;;;4.40;99.90;4.00;101822.00;;;;4972589;28;87979;-66
2022/11/27 02:32:58;;;;;;;5.47;3.70;;;4.30;99.90;3.80;101809.00;;;;4973106;28;108267;-67
2022/11/27 02:35:54;;;;;;;5.90;3.60;;;4.10;99.90;3.70;101820.00;;;;4972372;28;90543;-66
2022/11/27 02:38:38;;;;;;;6.37;3.73;;;4.10;99.90;3.60;101803.00;;;;4976879;28;112067;-66
2022/11/27 02:41:20;;;;;;;7.43;3.57;;;3.90;99.90;3.50;101806.00;;;;4973249;28;91584;-65
2022/11/27 02:43:49;;;;;;;3.40;3.10;;;4.30;99.90;3.40;101799.00;;;;4992330;28;96795;-65
2022/11/27 02:46:17;;;;;;;5.17;3.10;;;3.80;99.90;3.30;101810.00;;;;4990880;27;90481;-65
2022/11/27 02:48:50;;;;;;;7.20;4.57;;;3.70;99.90;3.30;101810.00;;;;4988742;27;88625;-65
2022/11/27 02:51:24;;;;;;;4.97;4.47;;;4.00;99.90;3.20;101795.00;;;;4990265;28;98210;-65
2022/11/27 02:53:58;;;;;;;9.37;4.43;;;3.40;99.90;3.10;101804.00;;;;4990720;27;99248;-65
2022/11/27 02:56:27;;;;;;;5.57;4.07;;;3.50;99.90;3.00;101803.00;;;;4988190;27;88626;-65
2022/11/27 02:58:57;;;;;;;5.37;3.70;;;3.50;99.90;2.90;101804.00;;;;4978363;28;88775;-65
2022/11/27 03:01:31;;;;;;;5.03;2.97;;;3.20;99.90;2.80;101799.00;;;;4994150;28;88621;-65
2022/11/27 03:03:58;;;;;;;5.37;3.30;;;3.10;99.90;2.70;101806.00;;;;4992047;28;87663;-65
2022/11/27 03:06:36;;;;;;;5.20;3.40;;;3.00;99.90;2.60;101801.00;;;;4989452;27;103943;-65
2022/11/27 03:09:08;;;;;;;6.60;4.20;;;2.90;99.90;2.60;101811.00;;;;4978897;28;87887;-65
2022/11/27 03:11:35;;;;;;;7.27;4.63;;;2.90;99.90;2.50;101813.00;;;;4974852;28;102981;-65
2022/11/27 03:14:05;;;;;;;5.80;4.10;;;2.90;99.90;2.50;101816.00;;;;4977849;28;108111;-65
2022/11/27 03:17:00;;;;;;;7.43;4.13;;;2.20;99.90;2.30;101816.00;;;;4989093;28;88540;-65
2022/11/27 03:19:44;;;;;;;6.43;2.87;;;2.70;99.90;2.30;101818.00;;;;4976314;28;101015;-65
2022/11/27 03:22:11;;;;;;;5.10;3.53;;;2.60;99.90;2.30;101822.00;;;;4984506;28;87768;-65
2022/11/27 03:24:37;;;;;;;6.60;3.97;;;2.60;99.90;2.20;101827.00;;;;4980129;28;87618;-65
2022/11/27 03:27:05;;;;;;;7.13;3.63;;;2.50;99.90;2.20;101826.00;;;;4977358;28;109828;-65
2022/11/27 03:29:53;;;;;;;5.77;3.53;;;2.60;99.90;2.10;101832.00;;;;4988427;27;88105;-65
2022/11/27 03:32:19;;;;;;;4.40;3.43;;;2.50;99.90;2.10;101823.00;;;;4978094;28;88026;-65
2022/11/27 03:34:46;;;;;;;3.93;3.27;;;2.40;99.90;2.00;101822.00;;;;4992831;28;109120;-65
2022/11/27 03:37:12;;;;;;;5.03;3.00;;;2.40;99.90;2.00;101822.00;;;;4992521;27;88853;-65
2022/11/27 03:39:38;;;;;;;5.07;3.37;;;2.40;99.90;1.90;101811.00;;;;4974881;27;117385;-65
2022/11/27 03:42:48;;;;;;;6.67;3.33;;;2.20;99.90;1.80;101818.00;;;;4992032;27;103915;-65
2022/11/27 03:45:35;;;;;;;2.90;2.33;;;2.20;99.90;1.80;101812.00;;;;4977492;28;104285;-65
2022/11/27 03:48:28;;;;;;;4.47;4.00;;;2.20;99.90;1.70;101804.00;;;;4976622;28;88078;-65
2022/11/27 03:51:32;;;;;;;7.17;5.40;;;2.10;99.90;1.60;101788.00;;;;4990252;27;87861;-65
2022/11/27 03:54:34;;;;;;;8.73;4.93;;;2.00;99.90;1.50;101794.00;;;;4992113;27;88820;-65
2022/11/27 03:57:19;;;;;;;5.20;3.97;;;2.00;99.90;1.50;101789.00;;;;4976115;28;87997;-65
2022/11/27 03:59:48;;;;;;;5.50;4.00;;;1.90;99.90;1.50;101792.00;;;;4988042;27;88657;-66
2022/11/27 04:02:16;;;;;;;8.77;4.97;;;1.90;99.90;1.50;101789.00;;;;4992034;27;109692;-65
2022/11/27 04:04:42;;;;;;;6.10;3.67;;;1.80;99.90;1.50;101776.00;;;;4992839;27;87937;-65
2022/11/27 04:07:16;;;;;;;8.60;5.73;;;1.80;99.90;1.40;101773.00;;;;4988021;27;107996;-66
2022/11/27 04:09:41;;;;;;;6.70;4.20;;;1.80;99.90;1.40;101781.00;;;;4976672;27;88653;-66
2022/11/27 04:12:07;;;;;;;5.33;3.33;;;1.70;99.90;1.30;101783.00;;;;4989743;27;116451;-66
2022/11/27 04:14:33;;;;;;;10.80;9.43;;;1.70;99.90;1.30;101789.00;;;;4989081;27;111424;-66
2022/11/27 04:16:58;;;;;;;10.20;6.30;;;1.60;99.90;1.20;101794.00;;;;4988915;27;109278;-66
2022/11/27 04:19:24;;;;;;;7.00;5.10;;;1.50;99.90;1.20;101793.00;;;;4995984;27;118453;-66
2022/11/27 04:21:50;;;;;;;20.97;12.10;;;1.60;99.90;1.10;101792.00;;;;4978019;27;118927;-65
2022/11/27 04:24:15;;;;;;;9.30;5.13;;;1.40;99.90;1.10;101793.00;;;;4994753;27;109534;-66
2022/11/27 04:26:41;;;;;;;8.87;4.20;;;1.50;99.90;1.10;101794.00;;;;4992415;27;87818;-66
2022/11/27 04:29:06;;;;;;;5.13;3.00;;;1.40;99.90;1.00;101794.00;;;;4990389;27;116950;-65
2022/11/27 04:31:32;;;;;;;4.73;3.33;;;1.40;99.90;1.00;101787.00;;;;4991711;27;117153;-65
2022/11/27 04:33:58;;;;;;;7.50;4.87;;;1.40;99.90;0.90;101792.00;;;;4990384;27;110074;-66
2022/11/27 04:36:23;;;;;;;7.63;5.20;;;1.30;99.90;0.90;101786.00;;;;4989775;28;110943;-64
2022/11/27 04:38:49;;;;;;;8.03;4.30;;;1.30;99.90;0.90;101795.00;;;;4985957;27;117321;-64
2022/11/27 04:41:15;;;;;;;7.97;3.97;;;1.30;99.90;0.80;101796.00;;;;4987734;28;117638;-65
2022/11/27 04:43:40;;;;;;;8.73;4.57;;;1.10;99.90;0.80;101792.00;;;;4988228;28;88820;-65
2022/11/27 04:46:06;;;;;;;5.73;4.80;;;1.10;99.90;0.80;101788.00;;;;4989019;28;109501;-65
2022/11/27 04:48:32;;;;;;;7.50;5.17;;;1.20;99.90;0.70;101792.00;;;;4988562;28;115700;-64
2022/11/27 04:50:57;;;;;;;12.30;7.33;;;1.10;99.90;0.70;101789.00;;;;4990769;27;87776;-66
2022/11/27 04:53:23;;;;;;;13.20;7.67;;;1.10;99.90;0.70;101791.00;;;;4989420;28;109900;-66
2022/11/27 04:55:51;;;;;;;10.70;5.40;;;1.10;99.90;0.60;101788.00;;;;4990077;28;108716;-65
2022/11/27 04:58:17;;;;;;;9.13;5.23;;;1.00;99.90;0.60;101788.00;;;;4990722;28;88898;-66
2022/11/27 05:00:42;;;;;;;11.90;6.27;;;1.00;99.90;0.60;101794.00;;;;4991784;28;88775;-65
2022/11/27 05:03:08;;;;;;;19.30;6.63;;;1.00;99.90;0.60;101787.00;;;;4988416;28;109279;-66
2022/11/27 05:05:33;;;;;;;13.53;7.90;;;1.00;99.90;0.60;101778.00;;;;4986704;28;109461;-66
2022/11/27 05:07:59;;;;;;;14.33;6.67;;;0.80;99.90;0.60;101792.00;;;;4985038;28;118288;-65
2022/11/27 05:10:25;;;;;;;11.87;6.63;;;0.90;99.90;0.50;101785.00;;;;4986391;28;119527;-66
2022/11/27 05:12:50;;;;;;;8.67;6.17;;;0.90;99.90;0.50;101795.00;;;;4989598;28;110560;-66
2022/11/27 05:15:16;;;;;;;8.33;6.17;;;0.90;99.90;0.50;101795.00;;;;4987908;28;96205;-66
2022/11/27 05:17:42;;;;;;;5.17;4.43;;;0.90;99.90;0.50;101799.00;;;;4983966;28;100586;-66
2022/11/27 05:20:08;;;;;;;5.90;4.13;;;0.90;99.90;0.50;101788.00;;;;4980793;27;117473;-66
2022/11/27 05:22:34;;;;;;;11.43;5.97;;;0.80;99.90;0.40;101803.00;;;;4988919;28;89378;-66
2022/11/27 05:24:59;;;;;;;10.93;5.17;;;0.80;99.90;0.40;101798.00;;;;4964386;28;108055;-66
2022/11/27 05:27:25;;;;;;;10.70;6.07;;;0.80;99.90;0.40;101793.00;;;;4994245;28;118472;-66
2022/11/27 05:29:50;;;;;;;9.07;7.00;;;0.60;99.90;0.30;101808.00;;;;4994012;28;118139;-66
2022/11/27 05:32:16;;;;;;;9.37;6.60;;;0.70;99.90;0.30;101809.00;;;;4991350;28;109714;-66
2022/11/27 05:34:42;;;;;;;6.83;4.37;;;0.60;99.90;0.30;101811.00;;;;4990785;27;107630;-66
2022/11/27 05:37:07;;;;;;;7.27;5.13;;;0.70;99.90;0.20;101817.00;;;;4987890;28;118265;-66
2022/11/27 05:39:33;;;;;;;8.03;4.93;;;0.70;99.90;0.20;101817.00;;;;4991623;27;87915;-66
2022/11/27 05:41:59;;;;;;;5.03;4.07;;;0.50;99.90;0.10;101818.00;;;;4991503;27;110621;-65
2022/11/27 05:44:25;;;;;;;6.10;4.37;;;0.50;99.90;0.10;101812.00;;;;4991744;28;101271;-66
2022/11/27 05:46:51;;;;;;;8.37;4.23;;;0.50;99.90;0.10;101820.00;;;;4990770;28;88148;-65
2022/11/27 05:49:17;;;;;;;5.33;4.30;;;0.50;99.90;0.00;101805.00;;;;4988213;28;116693;-66
2022/11/27 05:51:43;;;;;;;6.00;4.10;;;0.40;99.90;0.00;101809.00;;;;4992006;27;88031;-65
2022/11/27 05:54:08;;;;;;;5.43;4.47;;;0.40;99.90;0.00;101814.00;;;;4990859;27;87745;-65
2022/11/27 05:56:34;;;;;;;5.70;4.30;;;0.40;99.90;-0.10;101808.00;;;;4988116;28;118741;-65
2022/11/27 05:59:00;;;;;;;6.60;4.13;;;0.30;99.90;-0.10;101804.00;;;;4989650;28;88801;-65
2022/11/27 06:01:26;;;;;;;5.30;3.90;;;0.20;99.90;-0.20;101798.00;;;;4989001;28;110312;-66
2022/11/27 06:03:52;;;;;;;5.77;3.67;;;0.20;99.90;-0.20;101802.00;;;;4993220;27;108824;-66
2022/11/27 06:06:19;;;;;;;4.30;3.67;;;0.20;99.90;-0.20;101804.00;;;;4990596;28;116908;-66
2022/11/27 06:08:46;;;;;;;4.90;3.87;;;0.10;99.90;-0.20;101789.00;;;;4993921;28;87683;-66
2022/11/27 06:11:18;;;;;;;7.97;4.63;;;0.10;99.90;-0.30;101787.00;;;;4990726;27;95268;-65
2022/11/27 06:13:46;;;;;;;5.43;4.03;;;0.10;99.90;-0.30;101789.00;;;;4992355;28;87151;-66
2022/11/27 06:16:16;;;;;;;5.00;3.47;;;0.00;99.90;-0.40;101800.00;;;;4990812;28;88698;-65
2022/11/27 06:18:42;;;;;;;5.80;4.23;;;0.00;99.90;-0.40;101790.00;;;;4984702;28;97105;-65
2022/11/27 06:21:13;;;;;;;8.30;4.33;;;0.00;99.90;-0.40;101786.00;;;;4985187;28;88653;-66
2022/11/27 06:23:42;;;;;;;5.63;4.37;;;0.00;99.90;-0.40;101791.00;;;;4989615;28;87861;-65
2022/11/27 06:26:29;;;;;;;5.63;4.40;;;-0.10;99.90;-0.50;101777.00;;;;4991460;27;89082;-65
2022/11/27 06:28:57;;;;;;;6.77;4.77;;;0.00;99.90;-0.50;101769.00;;;;4990613;28;87846;-65
2022/11/27 06:31:27;;;;;;;7.07;4.67;;;0.00;99.90;-0.50;101770.00;;;;4988122;28;87863;-65
2022/11/27 06:33:54;;;;;;;9.60;6.00;;;-0.20;99.90;-0.50;101774.00;;;;4992224;27;87907;-65
2022/11/27 06:36:23;;;;;;;8.67;6.20;;;-0.10;99.90;-0.60;101763.00;;;;4990204;28;105738;-65
2022/11/27 06:38:49;;;;;;;13.80;6.27;;;-0.20;99.90;-0.60;101761.00;;;;4990846;27;87997;-65
2022/11/27 06:41:20;;;;;;;12.73;7.00;;;-0.20;99.90;-0.60;101757.00;;;;4993186;27;111601;-64
2022/11/27 06:43:46;;;;;;;7.30;5.50;;;-0.20;99.90;-0.60;101753.00;;;;4979730;28;88165;-65
2022/11/27 06:46:16;;;;;;;12.23;7.80;;;-0.20;99.90;-0.60;101754.00;;;;4991802;27;93230;-66
2022/11/27 06:48:43;;;;;;;27.60;16.27;;;-0.20;99.90;-0.60;101757.00;;;;4992393;27;89150;-65
2022/11/27 06:51:13;;;;;;;16.93;10.80;;;-0.20;99.90;-0.60;101751.00;;;;4988622;28;87848;-65
2022/11/27 06:53:39;;;;;;;10.50;6.77;;;-0.20;99.90;-0.60;101741.00;;;;4992305;27;87934;-65
2022/11/27 06:56:11;;;;;;;16.60;8.70;;;-0.30;99.90;-0.60;101746.00;;;;4988436;27;112852;-65
2022/11/27 06:58:38;;;;;;;12.80;8.20;;;-0.20;99.90;-0.60;101742.00;;;;4986974;27;103223;-64
2022/11/27 07:01:09;;;;;;;9.20;6.50;;;-0.20;99.90;-0.60;101742.00;;;;4987799;27;110376;-65
2022/11/27 07:03:35;;;;;;;14.07;9.83;;;-0.10;99.90;-0.50;101746.00;;;;4987926;28;86897;-65
2022/11/27 07:06:06;;;;;;;14.93;10.20;;;-0.10;99.90;-0.50;101741.00;;;;4986752;28;88380;-65
2022/11/27 07:08:34;;;;;;;16.27;9.70;;;-0.30;99.90;-0.40;101743.00;;;;4986342;28;94294;-65
2022/11/27 07:11:09;;;;;;;15.50;9.57;;;-0.10;99.90;-0.30;101743.00;;;;4987988;27;88910;-64
2022/11/27 07:13:35;;;;;;;14.93;9.73;;;0.40;99.90;-0.20;101746.00;;;;4975034;27;88223;-66
2022/11/27 07:16:04;;;;;;;14.50;9.03;;;0.10;99.90;-0.10;101746.00;;;;4989895;27;114327;-67
2022/11/27 07:18:32;;;;;;;13.87;8.40;;;0.20;99.90;0.10;101746.00;;;;4991626;28;88238;-65
2022/11/27 07:20:58;;;;;;;14.30;9.33;;;0.40;99.90;0.30;101743.00;;;;4973696;28;100811;-65
2022/11/27 07:23:24;;;;;;;12.93;9.10;;;0.60;99.90;0.40;101748.00;;;;4989303;28;104476;-66
2022/11/27 07:25:49;;;;;;;14.20;10.40;;;0.60;99.90;0.60;101758.00;;;;4987262;27;116653;-65
2022/11/27 07:28:15;;;;;;;15.60;10.00;;;1.00;99.90;0.90;101751.00;;;;4988868;27;117130;-66
2022/11/27 07:30:41;;;;;;;15.13;10.57;;;1.10;99.90;1.10;101754.00;;;;4989386;28;113606;-66
2022/11/27 07:33:06;;;;;;;11.23;7.60;;;1.30;99.90;1.40;101769.00;;;;4989290;28;107724;-66
2022/11/27 07:35:32;;;;;;;13.87;9.37;;;1.60;99.90;1.60;101753.00;;;;4985996;27;93095;-66
2022/11/27 07:37:57;;;;;;;14.97;9.57;;;1.90;99.90;1.80;101757.00;;;;4990184;27;118531;-66
2022/11/27 07:40:23;;;;;;;13.80;8.67;;;2.00;99.90;2.10;101751.00;;;;4992050;27;110790;-66
2022/11/27 07:42:49;;;;;;;13.90;8.03;;;2.30;99.90;2.30;101757.00;;;;4991946;27;108981;-66
2022/11/27 07:45:14;;;;;;;14.53;9.77;;;3.50;99.90;2.60;101760.00;;;;4989943;27;119293;-67
2022/11/27 07:47:40;;;;;;;17.73;10.67;;;3.70;99.90;2.80;101763.00;;;;4989156;27;116309;-67
2022/11/27 07:50:07;;;;;;;13.20;8.37;;;3.00;99.90;3.10;101748.00;;;;4993255;27;109378;-66
2022/11/27 07:52:35;;;;;;;16.23;9.73;;;3.20;99.90;3.30;101749.00;;;;4990331;27;87122;-66
2022/11/27 07:55:01;;;;;;;9.00;6.73;;;3.50;99.90;3.50;101731.00;;;;4989403;27;88030;-66
2022/11/27 07:57:27;;;;;;;8.93;5.87;;;3.60;99.90;3.70;101739.00;;;;4986374;27;117769;-66
2022/11/27 07:59:53;;;;;;;7.90;5.87;;;3.90;99.90;3.90;101740.00;;;;4989523;27;93507;-66
2022/11/27 08:02:19;;;;;;;5.77;5.10;;;4.00;99.90;4.00;101746.00;;;;4990131;27;87782;-66
2022/11/27 08:04:44;;;;;;;5.97;4.43;;;4.20;99.90;4.10;101745.00;;;;4986340;27;93557;-66
2022/11/27 08:07:10;;;;;;;8.43;4.33;;;4.30;99.90;4.20;101740.00;;;;4987221;27;117847;-66
2022/11/27 08:09:36;;;;;;;5.57;4.27;;;4.40;99.90;4.30;101747.00;;;;4990554;27;87794;-66
2022/11/27 08:12:03;;;;;;;7.03;6.33;;;4.50;99.90;4.60;101729.00;;;;4990122;27;87862;-66
2022/11/27 08:14:29;;;;;;;6.53;5.07;;;4.70;99.90;4.90;101730.00;;;;4984355;27;110637;-68
2022/11/27 08:16:54;;;;;;;5.43;4.10;;;5.00;99.90;5.20;101730.00;;;;4985965;27;118164;-65
2022/11/27 08:19:21;;;;;;;6.70;4.73;;;5.20;99.90;5.50;101721.00;;;;4991109;27;87953;-65
2022/11/27 08:21:46;;;;;;;6.83;4.77;;;5.60;99.90;5.80;101725.00;;;;4993077;27;109036;-65
2022/11/27 08:24:12;;;;;;;8.93;4.00;;;6.80;99.90;6.00;101733.00;;;;4989071;27;119132;-65
2022/11/27 08:26:38;;;;;;;7.80;4.70;;;6.00;99.90;6.30;101718.00;;;;4989511;27;119088;-66
2022/11/27 08:29:05;;;;;;;4.17;3.63;;;6.30;99.90;6.50;101712.00;;;;4989867;27;87554;-66
2022/11/27 08:31:31;;;;;;;4.33;3.73;;;6.90;99.90;6.70;101727.00;;;;4995989;27;88005;-66
2022/11/27 08:33:56;;;;;;;4.47;4.07;;;6.70;99.90;6.90;101727.00;;;;4991703;27;108127;-66
2022/11/27 08:36:25;;;;;;;6.13;4.23;;;7.60;99.90;7.20;101724.00;;;;4981325;27;104136;-67
2022/11/27 08:38:51;;;;;;;5.77;3.83;;;7.20;99.90;7.40;101725.00;;;;4981766;27;88011;-67
2022/11/27 08:41:17;;;;;;;6.30;3.30;;;7.40;99.90;7.70;101731.00;;;;4988049;27;87028;-66
2022/11/27 08:43:43;;;;;;;7.10;4.13;;;7.80;99.90;7.90;101727.00;;;;4987353;27;89175;-66
2022/11/27 08:46:09;;;;;;;6.93;4.97;;;7.90;99.90;8.10;101724.00;;;;4989162;27;117367;-66
2022/11/27 08:48:35;;;;;;;5.57;4.00;;;8.10;99.90;8.30;101726.00;;;;4982052;27;97380;-66
2022/11/27 08:51:06;;;;;;;5.83;5.23;;;8.30;99.90;8.40;101733.00;;;;4987994;27;88079;-67
2022/11/27 08:53:33;;;;;;;6.33;4.07;;;9.40;99.90;8.60;101740.00;;;;4987212;27;87948;-66
2022/11/27 08:56:18;;;;;;;12.23;7.83;;;8.60;99.90;8.80;101733.00;;;;4991796;27;87729;-67
2022/11/27 08:58:44;;;;;;;9.07;6.30;;;8.80;99.90;9.00;101729.00;;;;4990354;27;90387;-66
2022/11/27 09:01:21;;;;;;;12.77;6.10;;;9.30;99.90;9.20;101733.00;;;;4988546;27;87942;-66
2022/11/27 09:03:47;;;;;;;9.07;6.57;;;9.20;99.90;9.40;101742.00;;;;4988226;27;87775;-66
2022/11/27 09:06:20;;;;;;;7.77;5.57;;;9.40;99.90;9.70;101731.00;;;;4988099;27;88618;-66
2022/11/27 09:08:47;;;;;;;5.27;3.97;;;9.60;99.90;9.80;101742.00;;;;4988423;27;87854;-66
2022/11/27 09:11:15;;;;;;;8.57;5.53;;;9.80;99.90;10.00;101740.00;;;;4984847;27;88255;-64
2022/11/27 09:13:42;;;;;;;25.53;19.53;;;9.90;99.90;10.10;101734.00;;;;4989551;27;89161;-65
2022/11/27 09:16:11;;;;;;;20.13;13.60;;;10.00;99.90;10.20;101734.00;;;;4984596;27;89541;-65
2022/11/27 09:18:37;;;;;;;5.40;4.77;;;10.10;99.90;10.20;101723.00;;;;4989248;27;88256;-65
2022/11/27 09:21:11;;;;;;;13.43;4.20;;;10.20;99.90;10.30;101732.00;;;;4993568;27;87902;-66
2022/11/27 09:23:37;;;;;;;6.67;4.83;;;10.20;99.90;10.50;101735.00;;;;4976531;27;97151;-66
2022/11/27 09:26:07;;;;;;;4.30;3.10;;;10.40;99.90;10.70;101737.00;;;;4990585;27;88313;-66
2022/11/27 09:28:33;;;;;;;5.07;3.20;;;10.60;99.90;10.90;101741.00;;;;4988236;27;88876;-66
2022/11/27 09:31:01;;;;;;;2.90;2.60;;;10.80;99.90;11.20;101733.00;;;;4990266;27;87196;-66
2022/11/27 09:33:29;;;;;;;4.33;2.70;;;11.00;99.90;11.40;101726.00;;;;4996089;27;106487;-66
2022/11/27 09:35:55;;;;;;;5.53;3.10;;;11.60;99.90;11.60;101728.00;;;;4995930;27;94616;-66
2022/11/27 09:38:22;;;;;;;5.87;3.57;;;11.50;99.90;11.70;101711.00;;;;4991646;27;88859;-65
2022/11/27 09:40:57;;;;;;;7.30;4.30;;;11.60;99.90;11.80;101711.00;;;;4992254;27;88637;-65
2022/11/27 09:43:30;;;;;;;5.63;3.13;;;11.70;99.90;11.90;101708.00;;;;4976282;28;107208;-65
2022/11/27 09:46:07;;;;;;;4.90;3.77;;;11.80;99.90;12.10;101701.00;;;;4976442;28;87631;-66
2022/11/27 09:48:38;;;;;;;5.90;4.20;;;11.90;99.90;12.20;101708.00;;;;4975623;28;87893;-66
2022/11/27 09:51:15;;;;;;;30.93;20.27;;;12.10;99.90;12.50;101706.00;;;;4993911;27;87883;-64
2022/11/27 09:53:49;;;;;;;4.23;3.83;;;12.30;99.90;12.70;101700.00;;;;4977258;27;94951;-65
2022/11/27 09:56:17;;;;;;;4.43;3.33;;;12.40;99.90;12.80;101699.00;;;;4987578;27;109269;-66
2022/11/27 09:58:56;;;;;;;5.40;2.93;;;12.70;99.90;13.00;101684.00;;;;4993559;27;88004;-66
2022/11/27 10:01:32;;;;;;;36.07;19.10;;;12.80;99.90;13.10;101688.00;;;;4976790;28;87728;-65
2022/11/27 10:04:00;;;;;;;6.70;4.43;;;12.90;99.90;13.20;101695.00;;;;4989843;27;88641;-66
2022/11/27 10:07:00;;;;;;;5.50;4.10;;;13.00;99.90;13.50;101690.00;;;;4975931;28;89367;-65
2022/11/27 10:09:54;;;;;;;6.50;3.70;;;13.20;99.90;13.90;101688.00;;;;4993780;27;88109;-65
2022/11/27 10:12:43;;;;;;;7.20;3.43;;;13.60;99.90;14.30;101680.00;;;;4979548;27;94488;-67
2022/11/27 10:15:18;;;;;;;6.50;4.17;;;14.00;99.90;14.50;101678.00;;;;4991574;27;88235;-65
2022/11/27 10:18:09;;;;;;;3.83;3.13;;;14.30;99.90;14.80;101672.00;;;;4974677;27;111928;-67
2022/11/27 10:20:50;;;;;;;5.47;2.23;;;14.50;99.90;14.90;101678.00;;;;4977139;27;87854;-65
2022/11/27 10:23:55;;;;;;;6.43;3.80;;;14.70;99.90;15.20;101673.00;;;;4977098;27;87388;-65
2022/11/27 10:26:29;;;;;;;4.83;2.17;;;14.90;99.90;15.20;101677.00;;;;4986034;27;109663;-65
2022/11/27 10:29:36;;;;;;;3.80;2.57;;;15.00;98.80;15.30;101677.00;;;;4974809;27;88408;-65
2022/11/27 10:32:14;;;;;;;11.73;3.87;;;15.00;99.20;15.50;101662.00;;;;4975859;28;88792;-66
2022/11/27 10:34:44;;;;;;;6.23;4.23;;;15.20;99.80;15.80;101669.00;;;;4989999;27;88666;-66
2022/11/27 10:37:24;;;;;;;3.35;2.95;;;15.40;99.90;16.10;101666.00;;;;4975427;28;88672;-66
2022/11/27 10:39:59;;;;;;;6.15;3.25;;;15.80;99.70;16.30;101661.00;;;;4991860;27;87794;-65
2022/11/27 10:43:03;;;;;;;4.18;2.22;;;16.00;98.00;16.50;101668.00;;;;4985960;27;100446;-64
2022/11/27 10:45:59;;;;;;;5.65;2.75;;;16.20;95.90;16.70;101658.00;;;;4990428;27;87821;-65
2022/11/27 10:48:26;;;;;;;5.35;3.22;;;16.30;95.10;16.80;101651.00;;;;4974769;28;88957;-66
2022/11/27 10:50:52;;;;;;;2.78;1.52;;;16.50;93.90;16.90;101651.00;;;;4992362;27;87685;-65
2022/11/27 10:53:31;;;;;;;3.03;2.30;;;16.60;92.60;17.00;101647.00;;;;4988078;27;108575;-66
2022/11/27 10:56:12;;;;;;;3.03;1.60;;;16.70;91.10;16.90;101646.00;;;;4993406;27;101922;-65
2022/11/27 10:59:05;;;;;;;1.73;1.38;;;16.70;87.60;16.80;101641.00;;;;4989812;27;88953;-65
2022/11/27 11:01:47;;;;;;;3.15;1.42;;;16.60;80.60;16.60;101644.00;;;;4973693;27;88729;-65
2022/11/27 11:04:19;;;;;;;3.80;1.83;;;16.40;82.20;16.50;101645.00;;;;4978672;28;87987;-66
2022/11/27 11:06:48;;;;;;;3.05;1.38;;;16.30;80.50;16.60;101641.00;;;;4988061;27;89131;-65
2022/11/27 11:09:21;;;;;;;1.40;1.30;;;16.30;82.20;16.50;101637.00;;;;4989345;27;89227;-65